Terminal Aerodrome Forecast
Issued by NWS Portland, OR

Home | Current Version | Previous Version | Text Only | Print | Product List | Glossary On
Versions: 1 2 3 4 5 6 7 8 9 10 11 12 13 14 15
000
FTUS46 KPQR 210139 AAA
TAFEUG
TAF AMD
KEUG 210139Z 2102/2124 22005KT P6SM BKN030 OVC070
      TEMPO 2102/2106 P6SM -RA SCT030 OVC050
     FM210800 08005KT P6SM VCSH BKN030
     FM211200 34007KT 4SM -RA BR OVC019
     FM211600 28014G25KT 2SM -RA BR OVC009
     FM212100 27012KT P6SM -RA OVC025=

USA.gov is the U.S. government's official web portal to all federal, state and local government web resources and services.